createdAt,value
2023-02-28T00:00:00.765Z,95742.59
2023-02-28T00:03:43.760Z,95730.06
2023-02-28T00:07:26.464Z,95733.59
2023-02-28T00:11:12.355Z,95724.22
2023-02-28T00:14:55.187Z,95732.06
2023-02-28T00:18:38.044Z,95717.66
2023-02-28T00:22:23.663Z,95715.78
2023-02-28T00:26:06.699Z,95710.84
2023-02-28T00:29:50.719Z,95711.31
2023-02-28T00:33:33.432Z,95714.38
2023-02-28T00:37:16.279Z,95717.88
2023-02-28T00:40:59.561Z,95713.44
2023-02-28T00:44:42.249Z,95717.88
2023-02-28T00:48:26.274Z,95719.88
2023-02-28T00:52:08.974Z,95719.41
2023-02-28T00:55:51.873Z,95722.34
2023-02-28T00:59:34.506Z,95717.53
2023-02-28T01:03:18.508Z,95723.53
2023-02-28T01:07:02.561Z,95714.25
2023-02-28T01:10:45.184Z,95721.88
2023-02-28T01:14:27.839Z,95705.59
2023-02-28T01:18:10.551Z,95700.09
2023-02-28T01:21:53.242Z,95698.91
2023-02-28T01:25:38.161Z,95700.78
2023-02-28T01:29:20.827Z,95698.34
2023-02-28T01:33:03.574Z,95696.09
2023-02-28T01:36:46.689Z,95695.19
2023-02-28T01:40:29.375Z,95690.97
2023-02-28T01:44:45.353Z,95694.19
2023-02-28T01:48:36.757Z,95691.38
2023-02-28T01:52:19.803Z,95680.16
2023-02-28T01:56:02.678Z,95674.19
2023-02-28T01:59:49.738Z,95681.78
2023-02-28T02:03:34.451Z,95675.22
2023-02-28T02:07:17.222Z,95674.75
2023-02-28T02:11:01.728Z,95679.22
2023-02-28T02:14:53.699Z,95673.59
2023-02-28T02:18:43.273Z,95675.94
2023-02-28T02:23:04.925Z,95674.28
2023-02-28T02:27:00.046Z,95675.56
2023-02-28T02:31:01.090Z,95671.00
2023-02-28T02:34:52.744Z,95669.13
2023-02-28T02:38:38.915Z,95662.13
2023-02-28T02:42:25.792Z,95666.44
2023-02-28T02:46:11.526Z,95670.19
2023-02-28T02:49:57.709Z,95665.75
2023-02-28T02:53:44.516Z,95655.69
2023-02-28T02:57:32.277Z,95663.75
2023-02-28T03:01:28.550Z,95658.03
2023-02-28T03:05:17.370Z,95655.44
2023-02-28T03:09:00.023Z,95653.00
2023-02-28T03:12:50.185Z,95651.13
2023-02-28T03:16:38.679Z,95658.47
2023-02-28T03:20:30.157Z,95660.94
2023-02-28T03:24:16.663Z,95664.69
2023-02-28T03:28:12.743Z,95665.63
2023-02-28T03:31:59.464Z,95670.66
2023-02-28T03:35:45.899Z,95653.69
2023-02-28T03:39:33.337Z,95656.63
2023-02-28T03:43:21.645Z,95655.78
2023-02-28T03:47:06.872Z,95655.19
2023-02-28T03:50:54.416Z,95664.69
2023-02-28T03:54:42.151Z,95663.97
2023-02-28T03:58:32.390Z,95666.66
2023-02-28T04:02:15.043Z,95671.81
2023-02-28T04:05:59.792Z,95673.22
2023-02-28T04:09:42.909Z,95675.66
2023-02-28T04:13:25.609Z,95684.09
2023-02-28T04:17:08.241Z,95690.88
2023-02-28T04:20:50.887Z,95692.06
2023-02-28T04:24:35.240Z,95705.53
2023-02-28T04:28:17.845Z,95710.34
2023-02-28T04:32:01.946Z,95702.50
2023-02-28T04:35:44.725Z,95689.63
2023-02-28T04:39:28.594Z,95701.44
2023-02-28T04:43:12.590Z,95685.78
2023-02-28T04:46:55.191Z,95693.97
2023-02-28T04:50:37.811Z,95702.16
2023-02-28T04:54:20.607Z,95700.78
2023-02-28T04:58:03.481Z,95701.97
2023-02-28T05:01:50.031Z,95710.50
2023-02-28T05:05:32.724Z,95715.19
2023-02-28T05:09:15.399Z,95720.13
2023-02-28T05:12:58.042Z,95718.13
2023-02-28T05:16:40.880Z,95712.50
2023-02-28T05:20:25.057Z,95724.91
2023-02-28T05:24:09.446Z,95718.84
2023-02-28T05:27:52.155Z,95726.31
2023-02-28T05:31:35.573Z,95721.41
2023-02-28T05:35:18.324Z,95719.53
2023-02-28T05:39:02.352Z,95729.13
2023-02-28T05:42:45.029Z,95720.34
2023-02-28T05:46:30.378Z,95724.91
2023-02-28T05:50:13.532Z,95724.91
2023-02-28T05:53:56.136Z,95723.63
2023-02-28T05:57:40.189Z,95721.88
2023-02-28T06:01:26.090Z,95731.00
2023-02-28T06:05:14.147Z,95738.63
2023-02-28T06:08:56.788Z,95745.06
2023-02-28T06:12:42.488Z,95735.69
2023-02-28T06:16:25.561Z,95744.84
2023-02-28T06:20:09.836Z,95757.50
2023-02-28T06:23:52.729Z,95755.88
2023-02-28T06:27:36.217Z,95752.78
2023-02-28T06:31:21.080Z,95755.38
2023-02-28T06:35:04.235Z,95755.16
2023-02-28T06:38:52.268Z,95750.94
2023-02-28T06:42:34.937Z,95769.09
2023-02-28T06:46:17.737Z,95773.31
2023-02-28T06:50:02.476Z,95779.06
2023-02-28T06:53:45.147Z,95779.28
2023-02-28T06:57:31.742Z,95793.59
2023-02-28T07:01:15.567Z,95780.69
2023-02-28T07:04:58.309Z,95790.28
2023-02-28T07:08:42.516Z,95791.03
2023-02-28T07:12:25.283Z,95796.06
2023-02-28T07:16:10.973Z,95796.78
2023-02-28T07:19:53.620Z,95790.91
2023-02-28T07:23:38.615Z,95790.19
2023-02-28T07:27:26.572Z,95806.84
2023-02-28T07:31:12.826Z,95798.50
2023-02-28T07:34:56.022Z,95799.69
2023-02-28T07:38:39.505Z,95793.94
2023-02-28T07:42:23.588Z,95801.53
2023-02-28T07:46:07.715Z,95792.63
2023-02-28T07:49:50.389Z,95800.13
2023-02-28T07:53:33.048Z,95797.66
2023-02-28T07:57:15.992Z,95789.56
2023-02-28T08:01:07.418Z,95795.41
2023-02-28T08:04:51.457Z,95802.34
2023-02-28T08:08:34.476Z,95802.47
2023-02-28T08:12:17.256Z,95808.66
2023-02-28T08:16:03.912Z,95810.66
2023-02-28T08:19:47.382Z,95820.50
2023-02-28T08:23:30.020Z,95821.31
2023-02-28T08:27:12.674Z,95830.34
2023-02-28T08:30:55.701Z,95816.75
2023-02-28T08:34:41.205Z,95821.78
2023-02-28T08:38:24.039Z,95825.53
2023-02-28T08:42:08.012Z,95831.50
2023-02-28T08:45:53.783Z,95836.06
2023-02-28T08:49:36.569Z,95835.34
2023-02-28T08:53:20.564Z,95835.94
2023-02-28T08:57:03.231Z,95842.13
2023-02-28T09:00:45.862Z,95837.97
2023-02-28T09:04:31.609Z,95828.63
2023-02-28T09:08:14.242Z,95836.16
2023-02-28T09:11:59.067Z,95843.16
2023-02-28T09:15:42.851Z,95836.47
2023-02-28T09:19:25.515Z,95845.03
2023-02-28T09:23:08.367Z,95845.72
2023-02-28T09:27:03.498Z,95852.03
2023-02-28T09:30:49.740Z,95845.94
2023-02-28T09:34:32.787Z,95859.72
2023-02-28T09:38:15.549Z,95864.44
2023-02-28T09:41:58.732Z,95864.63
2023-02-28T09:45:43.177Z,95860.19
2023-02-28T09:49:31.153Z,95870.75
2023-02-28T09:53:18.961Z,95878.56
2023-02-28T09:57:04.121Z,95882.91
2023-02-28T10:00:52.528Z,95882.56
2023-02-28T10:04:44.840Z,95878.41
2023-02-28T10:08:29.684Z,95883.75
2023-02-28T10:12:13.758Z,95876.53
2023-02-28T10:16:00.334Z,95888.31
2023-02-28T10:19:48.239Z,95886.69
2023-02-28T10:23:34.318Z,95893.06
2023-02-28T10:27:19.637Z,95895.81
2023-02-28T10:31:02.569Z,95906.78
2023-02-28T10:34:46.885Z,95894.66
2023-02-28T10:38:33.883Z,95898.66
2023-02-28T10:42:26.769Z,95902.63
2023-02-28T10:46:16.454Z,95912.00
2023-02-28T10:50:00.531Z,95912.38
2023-02-28T10:54:01.639Z,95910.09
2023-02-28T10:57:44.839Z,95920.19
2023-02-28T11:01:37.926Z,95909.56
2023-02-28T11:05:33.601Z,95924.28
2023-02-28T11:09:25.292Z,95910.44
2023-02-28T11:13:19.097Z,95915.91
2023-02-28T11:17:13.384Z,95923.56
2023-02-28T11:21:01.193Z,95923.56
2023-02-28T11:24:45.742Z,95924.09
2023-02-28T11:28:32.169Z,95917.28
2023-02-28T11:32:18.779Z,95919.91
2023-02-28T11:36:06.315Z,95913.66
2023-02-28T11:39:49.166Z,95896.25
2023-02-28T11:43:39.539Z,95895.81
2023-02-28T11:47:29.816Z,95900.75
2023-02-28T11:51:17.993Z,95893.09
2023-02-28T11:55:11.513Z,95890.34
2023-02-28T11:59:00.428Z,95887.34
2023-02-28T12:02:57.357Z,95876.38
2023-02-28T12:06:47.186Z,95872.75
2023-02-28T12:10:31.687Z,95869.28
2023-02-28T12:14:49.093Z,95864.97
2023-02-28T12:18:49.333Z,95857.97
2023-02-28T12:22:37.947Z,95861.34
2023-02-28T12:26:25.275Z,95851.84
2023-02-28T12:30:16.491Z,95857.34
2023-02-28T12:34:05.441Z,95847.16
2023-02-28T12:37:53.749Z,95846.03
2023-02-28T12:41:41.439Z,95839.19
2023-02-28T12:45:26.162Z,95832.75
2023-02-28T12:49:12.764Z,95833.56
2023-02-28T12:53:01.877Z,95828.34
2023-02-28T12:56:49.428Z,95829.06
2023-02-28T13:00:36.372Z,95829.69
2023-02-28T13:04:44.129Z,95833.78
2023-02-28T13:08:43.677Z,95820.44
2023-02-28T13:12:27.792Z,95833.50
2023-02-28T13:16:11.705Z,95829.63
2023-02-28T13:20:00.024Z,95833.50
2023-02-28T13:24:01.508Z,95824.50
2023-02-28T13:27:44.733Z,95837.53
2023-02-28T13:31:28.171Z,95830.81
2023-02-28T13:35:47.351Z,95835.19
2023-02-28T13:39:51.213Z,95843.69
2023-02-28T13:44:02.047Z,95833.56
2023-02-28T13:47:46.062Z,95836.28
2023-02-28T13:51:42.855Z,95822.44
2023-02-28T13:55:29.627Z,95835.81
2023-02-28T13:59:22.664Z,95835.03
2023-02-28T14:03:20.956Z,95837.28
2023-02-28T14:07:03.921Z,95833.50
2023-02-28T14:10:50.315Z,95834.91
2023-02-28T14:14:57.356Z,95831.72
2023-02-28T14:18:43.182Z,95835.56
2023-02-28T14:22:48.359Z,95841.22
2023-02-28T14:26:44.967Z,95825.00
2023-02-28T14:30:51.223Z,95827.28
2023-02-28T14:34:47.276Z,95834.59
2023-02-28T14:38:32.204Z,95836.06
2023-02-28T14:42:34.005Z,95825.94
2023-02-28T14:46:17.294Z,95828.44
2023-02-28T14:50:01.273Z,95822.84
2023-02-28T14:53:44.021Z,95832.97
2023-02-28T14:57:28.261Z,95829.19
2023-02-28T15:01:13.362Z,95815.00
2023-02-28T15:05:00.715Z,95815.34
2023-02-28T15:08:43.346Z,95824.56
2023-02-28T15:12:27.236Z,95819.31
2023-02-28T15:16:13.806Z,95820.28
2023-02-28T15:19:57.019Z,95820.28
2023-02-28T15:23:40.128Z,95826.16
2023-02-28T15:27:24.560Z,95817.03
2023-02-28T15:31:23.833Z,95815.41
2023-02-28T15:35:21.803Z,95815.25
2023-02-28T15:39:15.915Z,95824.88
2023-02-28T15:43:07.073Z,95824.69
2023-02-28T15:47:00.150Z,95829.25
2023-02-28T15:50:43.354Z,95828.75
2023-02-28T15:54:30.163Z,95833.66
2023-02-28T15:58:14.457Z,95840.34
2023-02-28T16:02:23.063Z,95841.06
2023-02-28T16:06:40.184Z,95843.66
2023-02-28T16:10:27.848Z,95839.91
2023-02-28T16:14:15.745Z,95850.50
2023-02-28T16:17:59.922Z,95845.63
2023-02-28T16:21:42.534Z,95836.56
2023-02-28T16:25:28.490Z,95837.75
2023-02-28T16:29:14.227Z,95842.97
2023-02-28T16:32:59.045Z,95839.09
2023-02-28T16:36:42.057Z,95847.00
2023-02-28T16:40:29.525Z,95849.69
2023-02-28T16:44:15.558Z,95849.50
2023-02-28T16:47:59.589Z,95856.63
2023-02-28T16:51:42.194Z,95862.19
2023-02-28T16:55:25.800Z,95862.78
2023-02-28T16:59:10.416Z,95866.13
2023-02-28T17:02:53.233Z,95864.50
2023-02-28T17:06:37.560Z,95875.59
2023-02-28T17:10:21.937Z,95866.97
2023-02-28T17:14:05.218Z,95874.09
2023-02-28T17:17:48.582Z,95880.41
2023-02-28T17:21:31.980Z,95884.78
2023-02-28T17:25:16.155Z,95886.44
2023-02-28T17:28:59.608Z,95897.78
2023-02-28T17:32:42.389Z,95896.84
2023-02-28T17:36:28.129Z,95893.56
2023-02-28T17:40:17.359Z,95900.00
2023-02-28T17:44:00.120Z,95900.59
2023-02-28T17:47:44.133Z,95897.22
2023-02-28T17:51:29.067Z,95890.97
2023-02-28T17:55:12.681Z,95893.19
2023-02-28T17:58:57.520Z,95897.03
2023-02-28T18:02:40.199Z,95904.13
2023-02-28T18:06:24.835Z,95894.28
2023-02-28T18:10:08.719Z,95905.09
2023-02-28T18:13:53.212Z,95898.69
2023-02-28T18:17:37.571Z,95896.69
2023-02-28T18:21:20.244Z,95903.09
2023-02-28T18:25:03.043Z,95905.16
2023-02-28T18:28:46.301Z,95901.06
2023-02-28T18:32:28.997Z,95902.31
2023-02-28T18:36:13.108Z,95897.13
2023-02-28T18:39:55.772Z,95902.19
2023-02-28T18:43:39.396Z,95897.81
2023-02-28T18:47:22.217Z,95897.94
2023-02-28T18:51:09.033Z,95901.22
2023-02-28T18:54:53.039Z,95898.47
2023-02-28T18:58:36.255Z,95887.81
2023-02-28T19:02:19.423Z,95882.91
2023-02-28T19:06:02.163Z,95881.94
2023-02-28T19:09:44.840Z,95888.78
2023-02-28T19:13:28.996Z,95886.84
2023-02-28T19:17:11.654Z,95898.88
2023-02-28T19:20:54.915Z,95897.09
2023-02-28T19:24:37.523Z,95891.09
2023-02-28T19:28:20.401Z,95898.47
2023-02-28T19:32:04.926Z,95891.38
2023-02-28T19:35:48.398Z,95885.91
2023-02-28T19:39:41.011Z,95893.81
2023-02-28T19:43:24.374Z,95898.31
2023-02-28T19:47:08.908Z,95895.72
2023-02-28T19:50:51.548Z,95896.00
2023-02-28T19:54:34.819Z,95893.69
2023-02-28T19:58:17.518Z,95894.66
2023-02-28T20:02:00.249Z,95893.28
2023-02-28T20:05:44.236Z,95888.38
2023-02-28T20:09:30.814Z,95877.75
2023-02-28T20:13:14.337Z,95880.75
2023-02-28T20:16:58.270Z,95868.19
2023-02-28T20:21:06.411Z,95883.25
2023-02-28T20:24:49.563Z,95883.09
2023-02-28T20:28:32.223Z,95879.69
2023-02-28T20:32:14.905Z,95873.53
2023-02-28T20:36:00.849Z,95876.41
2023-02-28T20:39:44.899Z,95872.84
2023-02-28T20:43:30.349Z,95881.59
2023-02-28T20:47:12.993Z,95877.09
2023-02-28T20:50:57.084Z,95879.00
2023-02-28T20:54:39.737Z,95878.03
2023-02-28T20:58:24.215Z,95876.41
2023-02-28T21:02:06.958Z,95872.03
2023-02-28T21:05:49.684Z,95875.97
2023-02-28T21:09:32.750Z,95870.09
2023-02-28T21:13:15.500Z,95878.56
2023-02-28T21:16:59.725Z,95880.75
2023-02-28T21:20:42.616Z,95873.38
2023-02-28T21:24:25.586Z,95876.91
2023-02-28T21:28:08.600Z,95869.56
2023-02-28T21:31:52.438Z,95867.81
2023-02-28T21:35:39.736Z,95871.06
2023-02-28T21:39:28.456Z,95860.81
2023-02-28T21:43:11.244Z,95864.25
2023-02-28T21:46:56.945Z,95851.25
2023-02-28T21:50:41.035Z,95857.19
2023-02-28T21:54:23.982Z,95848.06
2023-02-28T21:58:06.681Z,95856.44
2023-02-28T22:01:51.524Z,95866.03
2023-02-28T22:05:34.304Z,95853.19
2023-02-28T22:09:18.820Z,95865.63
2023-02-28T22:13:03.584Z,95850.47
2023-02-28T22:16:55.160Z,95859.75
2023-02-28T22:20:38.279Z,95854.56
2023-02-28T22:24:24.382Z,95856.09
2023-02-28T22:28:07.352Z,95858.97
2023-02-28T22:31:50.065Z,95864.69
2023-02-28T22:35:32.785Z,95863.88
2023-02-28T22:39:15.512Z,95855.56
2023-02-28T22:42:59.630Z,95860.06
2023-02-28T22:46:42.360Z,95855.69
2023-02-28T22:50:25.056Z,95855.16
2023-02-28T22:54:07.710Z,95863.63
2023-02-28T22:57:50.379Z,95846.41
2023-02-28T23:01:35.631Z,95857.34
2023-02-28T23:05:18.578Z,95857.75
2023-02-28T23:09:02.948Z,95854.47
2023-02-28T23:12:51.209Z,95843.13
2023-02-28T23:16:37.210Z,95852.97
2023-02-28T23:20:21.816Z,95847.78
2023-02-28T23:24:05.394Z,95849.81
2023-02-28T23:27:48.351Z,95852.81
2023-02-28T23:31:31.399Z,95845.31
2023-02-28T23:35:15.484Z,95857.88
2023-02-28T23:38:58.147Z,95855.97
2023-02-28T23:42:41.007Z,95841.91
2023-02-28T23:46:23.819Z,95841.91
2023-02-28T23:50:07.105Z,95843.97
2023-02-28T23:53:52.592Z,95841.50
2023-02-28T23:57:36.170Z,95836.03
